Time;durP1;ratioP1;P1;durP2;ratioP2;P2;SDS_P1;SDS_P2;PMS_P1;PMS_P2;Temp;Humidity;BMP_temperature;BMP_pressure;BME280_temperature;BME280_humidity;BME280_pressure;Samples;Min_cycle;Max_cycle;Signal;HPM_P1;HPM_P2
2022/06/24 00:01:27;;;;;;;4.82;4.13;;;;;;;;;;5088308;28;20043;-76
2022/06/24 00:03:53;;;;;;;4.85;3.90;;;;;;;;;;5082916;28;20074;-76
2022/06/24 00:06:19;;;;;;;6.65;4.00;;;;;;;;;;5073996;28;20025;-76
2022/06/24 00:09:12;;;;;;;5.10;3.88;;;;;;;;;;5081091;28;20023;-76
2022/06/24 00:11:38;;;;;;;5.38;4.00;;;;;;;;;;5082764;28;20171;-74
2022/06/24 00:14:05;;;;;;;12.15;3.92;;;;;;;;;;5090562;28;20107;-77
2022/06/24 00:16:32;;;;;;;6.15;4.10;;;;;;;;;;5080811;28;20028;-77
2022/06/24 00:19:11;;;;;;;7.53;4.18;;;;;;;;;;5072849;28;20054;-77
2022/06/24 00:21:37;;;;;;;5.32;4.00;;;;;;;;;;5074659;28;20040;-73
2022/06/24 00:24:04;;;;;;;5.55;3.80;;;;;;;;;;5080658;28;20094;-75
2022/06/24 00:26:40;;;;;;;7.22;4.13;;;;;;;;;;5078851;28;20029;-76
2022/06/24 00:29:06;;;;;;;6.10;4.10;;;;;;;;;;5074558;28;20489;-76
2022/06/24 00:31:34;;;;;;;5.88;4.10;;;;;;;;;;5076436;28;20032;-76
2022/06/24 00:34:00;;;;;;;5.35;3.85;;;;;;;;;;5088735;28;20046;-75
2022/06/24 00:36:26;;;;;;;8.10;3.92;;;;;;;;;;5078749;28;20490;-75
2022/06/24 00:38:53;;;;;;;8.73;4.05;;;;;;;;;;5078724;28;20028;-76
2022/06/24 00:41:23;;;;;;;4.88;3.92;;;;;;;;;;5088876;28;20701;-76
2022/06/24 00:44:03;;;;;;;6.75;4.10;;;;;;;;;;5082578;28;20028;-76
2022/06/24 00:46:36;;;;;;;4.63;3.83;;;;;;;;;;5076137;28;20381;-75
2022/06/24 00:49:04;;;;;;;7.07;3.90;;;;;;;;;;5083900;28;20027;-76
2022/06/24 00:51:36;;;;;;;6.13;4.47;;;;;;;;;;5085134;28;20485;-77
2022/06/24 00:54:10;;;;;;;5.93;4.22;;;;;;;;;;5077206;28;20040;-75
2022/06/24 00:56:36;;;;;;;;;;;;;;;;;;5076563;28;20056;-76
2022/06/24 00:59:05;;;;;;;6.80;4.10;;;;;;;;;;5076386;28;20009;-75
2022/06/24 01:01:36;;;;;;;6.85;4.00;;;;;;;;;;5077320;28;20109;-76
2022/06/24 01:04:03;;;;;;;6.40;3.85;;;;;;;;;;5079283;28;20031;-75
2022/06/24 01:06:29;;;;;;;8.52;4.00;;;;;;;;;;5083170;28;20033;-76
2022/06/24 01:08:56;;;;;;;6.60;3.95;;;;;;;;;;5081995;28;20032;-76
2022/06/24 01:11:28;;;;;;;6.85;4.10;;;;;;;;;;5081080;28;20024;-73
2022/06/24 01:13:54;;;;;;;6.57;4.10;;;;;;;;;;5076855;28;20016;-76
2022/06/24 01:16:21;;;;;;;7.88;3.75;;;;;;;;;;5085977;28;20043;-76
2022/06/24 01:18:50;;;;;;;6.00;3.70;;;;;;;;;;5074861;28;20048;-76
2022/06/24 01:21:38;;;;;;;6.13;3.90;;;;;;;;;;5077548;28;20040;-78
2022/06/24 01:24:11;;;;;;;6.18;4.05;;;;;;;;;;5077296;28;20025;-74
2022/06/24 01:26:40;;;;;;;7.25;4.18;;;;;;;;;;5086480;28;20020;-76
2022/06/24 01:29:06;;;;;;;4.88;3.60;;;;;;;;;;5075905;28;20025;-76
2022/06/24 01:31:35;;;;;;;5.18;4.00;;;;;;;;;;5078450;28;20027;-75
2022/06/24 01:34:02;;;;;;;7.00;4.57;;;;;;;;;;5079042;28;20555;-76
2022/06/24 01:36:28;;;;;;;4.40;4.00;;;;;;;;;;5081160;28;20511;-77
2022/06/24 01:38:54;;;;;;;6.15;4.18;;;;;;;;;;5081819;28;20069;-76
2022/06/24 01:41:20;;;;;;;5.93;3.90;;;;;;;;;;5089214;28;20024;-76
2022/06/24 01:43:46;;;;;;;7.30;4.50;;;;;;;;;;5084561;28;20078;-76
2022/06/24 01:46:12;;;;;;;7.43;4.13;;;;;;;;;;5080183;28;20024;-76
2022/06/24 01:48:39;;;;;;;6.28;4.13;;;;;;;;;;5082805;28;20533;-76
2022/06/24 01:51:06;;;;;;;6.68;4.40;;;;;;;;;;5081091;28;20032;-76
2022/06/24 01:53:32;;;;;;;5.43;4.18;;;;;;;;;;5080865;28;20028;-75
2022/06/24 01:55:59;;;;;;;8.70;4.10;;;;;;;;;;5093764;28;20059;-76
2022/06/24 01:58:25;;;;;;;6.32;4.22;;;;;;;;;;5081989;28;20037;-76
2022/06/24 02:00:52;;;;;;;5.72;4.60;;;;;;;;;;5080962;28;20024;-76
2022/06/24 02:03:18;;;;;;;6.35;4.50;;;;;;;;;;5077606;28;20021;-75
2022/06/24 02:05:45;;;;;;;5.53;4.30;;;;;;;;;;5085065;28;20078;-76
2022/06/24 02:08:12;;;;;;;5.75;4.40;;;;;;;;;;5087076;28;20498;-76
2022/06/24 02:13:29;;;;;;;5.38;4.60;;;;;;;;;;5088096;28;20067;-76
2022/06/24 02:15:55;;;;;;;8.73;4.57;;;;;;;;;;5083322;28;20046;-74
2022/06/24 02:18:21;;;;;;;7.10;4.70;;;;;;;;;;5079065;28;20021;-76
2022/06/24 02:20:48;;;;;;;5.80;4.50;;;;;;;;;;5086514;28;20538;-74
2022/06/24 02:23:14;;;;;;;5.82;4.43;;;;;;;;;;5076307;28;20021;-76
2022/06/24 02:25:40;;;;;;;5.97;4.50;;;;;;;;;;5081701;28;20047;-75
2022/06/24 02:28:06;;;;;;;8.20;4.53;;;;;;;;;;5082489;28;20077;-76
2022/06/24 02:30:32;;;;;;;6.45;4.93;;;;;;;;;;5084011;28;20048;-75
2022/06/24 02:32:58;;;;;;;6.07;4.57;;;;;;;;;;5079588;28;20028;-75
2022/06/24 02:35:24;;;;;;;5.93;4.63;;;;;;;;;;5083707;28;20071;-76
2022/06/24 02:37:50;;;;;;;6.28;4.88;;;;;;;;;;5087353;28;20020;-75
2022/06/24 02:43:01;;;;;;;6.75;4.50;;;;;;;;;;5069011;28;20115;-76
2022/06/24 02:45:27;;;;;;;9.10;5.28;;;;;;;;;;5081234;28;20025;-76
2022/06/24 02:47:53;;;;;;;8.75;4.90;;;;;;;;;;5076733;28;20039;-76
2022/06/24 02:50:21;;;;;;;8.05;4.70;;;;;;;;;;5077966;28;20032;-76
2022/06/24 02:52:47;;;;;;;6.60;4.55;;;;;;;;;;5074994;28;20109;-76
2022/06/24 02:55:14;;;;;;;8.38;4.80;;;;;;;;;;5072925;28;20050;-76
2022/06/24 02:57:40;;;;;;;6.55;4.40;;;;;;;;;;5074773;28;20024;-74
2022/06/24 03:00:06;;;;;;;6.82;4.18;;;;;;;;;;5074083;28;20107;-75
2022/06/24 03:02:32;;;;;;;8.85;4.97;;;;;;;;;;5073852;28;20047;-76
2022/06/24 03:04:58;;;;;;;5.13;4.32;;;;;;;;;;5078535;28;20520;-74
2022/06/24 03:07:24;;;;;;;6.85;4.65;;;;;;;;;;5077790;28;20486;-76
2022/06/24 03:09:50;;;;;;;8.00;4.43;;;;;;;;;;5076458;28;20403;-76
2022/06/24 03:12:18;;;;;;;7.03;4.72;;;;;;;;;;5081703;28;20431;-76
2022/06/24 03:14:44;;;;;;;5.40;4.28;;;;;;;;;;5074345;28;20058;-75
2022/06/24 03:17:11;;;;;;;9.07;4.35;;;;;;;;;;5077648;28;20020;-75
2022/06/24 03:19:37;;;;;;;7.82;4.13;;;;;;;;;;5072821;28;20048;-75
2022/06/24 03:22:03;;;;;;;6.82;4.40;;;;;;;;;;5084343;28;20480;-76
2022/06/24 03:24:29;;;;;;;6.88;4.53;;;;;;;;;;5077786;28;20032;-75
2022/06/24 03:26:55;;;;;;;5.95;4.55;;;;;;;;;;5082215;28;20033;-75
2022/06/24 03:29:21;;;;;;;7.00;4.13;;;;;;;;;;5078737;28;20035;-76
2022/06/24 03:31:47;;;;;;;6.78;4.50;;;;;;;;;;5078606;28;20070;-77
2022/06/24 03:34:13;;;;;;;6.55;4.35;;;;;;;;;;5087037;28;20107;-75
2022/06/24 03:36:39;;;;;;;9.25;4.47;;;;;;;;;;5080873;28;20036;-75
2022/06/24 03:39:05;;;;;;;9.40;4.40;;;;;;;;;;5076970;28;20038;-74
2022/06/24 03:41:33;;;;;;;8.38;4.90;;;;;;;;;;5078860;28;20158;-75
2022/06/24 03:44:00;;;;;;;10.98;4.50;;;;;;;;;;5089566;28;20020;-75
2022/06/24 03:46:26;;;;;;;7.15;5.03;;;;;;;;;;5074565;28;20078;-75
2022/06/24 03:48:52;;;;;;;6.97;4.63;;;;;;;;;;5080934;28;20024;-76
2022/06/24 03:51:18;;;;;;;8.57;4.63;;;;;;;;;;5077512;28;20138;-75
2022/06/24 03:53:44;;;;;;;6.20;3.95;;;;;;;;;;5088970;28;20074;-75
2022/06/24 03:56:10;;;;;;;6.90;4.38;;;;;;;;;;5075249;28;20028;-76
2022/06/24 03:58:36;;;;;;;10.43;4.10;;;;;;;;;;5089662;28;20430;-76
2022/06/24 04:01:03;;;;;;;18.60;5.00;;;;;;;;;;5073982;28;20024;-76
2022/06/24 04:03:29;;;;;;;7.20;4.13;;;;;;;;;;5078328;28;20024;-76
2022/06/24 04:05:55;;;;;;;12.73;4.95;;;;;;;;;;5073214;28;20120;-75
2022/06/24 04:08:21;;;;;;;13.20;4.57;;;;;;;;;;5084036;28;20069;-75
2022/06/24 04:10:47;;;;;;;18.02;6.18;;;;;;;;;;5073426;28;20090;-75
2022/06/24 04:13:13;;;;;;;8.20;5.35;;;;;;;;;;5080898;28;20397;-76
2022/06/24 04:15:47;;;;;;;11.60;5.25;;;;;;;;;;5088863;28;20036;-75
2022/06/24 04:18:13;;;;;;;16.50;5.40;;;;;;;;;;5070216;28;20439;-75
2022/06/24 04:20:40;;;;;;;13.00;5.18;;;;;;;;;;5079705;28;20058;-76
2022/06/24 04:23:06;;;;;;;12.50;5.72;;;;;;;;;;5082152;28;20036;-75
2022/06/24 04:25:33;;;;;;;13.77;5.25;;;;;;;;;;5072036;28;20033;-75
2022/06/24 04:27:59;;;;;;;11.75;5.50;;;;;;;;;;5075247;28;20103;-75
2022/06/24 04:30:25;;;;;;;12.35;5.63;;;;;;;;;;5082436;28;20054;-76
2022/06/24 04:32:51;;;;;;;12.40;5.78;;;;;;;;;;5069563;28;20435;-77
2022/06/24 04:35:17;;;;;;;11.23;4.93;;;;;;;;;;5095373;28;20386;-70
2022/06/24 04:37:44;;;;;;;17.05;5.30;;;;;;;;;;5077762;28;20060;-74
2022/06/24 04:40:12;;;;;;;9.48;4.78;;;;;;;;;;5076020;28;20452;-75
2022/06/24 04:42:38;;;;;;;13.55;5.35;;;;;;;;;;5072779;28;20029;-74
2022/06/24 04:45:05;;;;;;;15.13;5.63;;;;;;;;;;5072304;28;20021;-75
2022/06/24 04:47:31;;;;;;;14.80;5.97;;;;;;;;;;5068750;28;20029;-73
2022/06/24 04:49:57;;;;;;;11.30;5.28;;;;;;;;;;5070492;28;20032;-72
2022/06/24 04:52:23;;;;;;;12.27;4.93;;;;;;;;;;5071779;28;20051;-75
2022/06/24 04:54:50;;;;;;;11.25;5.07;;;;;;;;;;5072273;28;20040;-76
2022/06/24 04:57:16;;;;;;;8.70;4.60;;;;;;;;;;5073819;28;20105;-78
2022/06/24 04:59:42;;;;;;;9.48;5.20;;;;;;;;;;5071934;28;20033;-76
2022/06/24 05:02:08;;;;;;;12.48;5.35;;;;;;;;;;5071049;28;20020;-77
2022/06/24 05:04:35;;;;;;;12.63;5.28;;;;;;;;;;5072816;28;20024;-74
2022/06/24 05:07:02;;;;;;;9.88;5.53;;;;;;;;;;5073717;28;20151;-75
2022/06/24 05:09:28;;;;;;;11.68;5.60;;;;;;;;;;5072695;28;20174;-75
2022/06/24 05:11:54;;;;;;;14.77;5.00;;;;;;;;;;5074140;28;20028;-77
2022/06/24 05:14:20;;;;;;;6.47;4.20;;;;;;;;;;5076784;28;20032;-74
2022/06/24 05:16:46;;;;;;;5.45;3.70;;;;;;;;;;5067585;28;20090;-73
2022/06/24 05:19:12;;;;;;;10.45;3.90;;;;;;;;;;5072814;28;20021;-74
2022/06/24 05:21:38;;;;;;;6.07;3.80;;;;;;;;;;5077497;28;20044;-74
2022/06/24 05:24:04;;;;;;;6.13;3.78;;;;;;;;;;5074123;28;20017;-73
2022/06/24 05:26:31;;;;;;;4.90;3.60;;;;;;;;;;5074155;28;20028;-76
2022/06/24 05:28:57;;;;;;;6.65;4.53;;;;;;;;;;5071614;28;20023;-75
2022/06/24 05:31:23;;;;;;;7.03;4.25;;;;;;;;;;5073327;28;20100;-69
2022/06/24 05:33:49;;;;;;;8.63;4.05;;;;;;;;;;5072276;28;20029;-71
2022/06/24 05:36:15;;;;;;;6.07;4.05;;;;;;;;;;5078594;28;20497;-72
2022/06/24 05:38:42;;;;;;;8.63;4.30;;;;;;;;;;5073452;28;20021;-72
2022/06/24 05:41:09;;;;;;;8.73;5.45;;;;;;;;;;5072130;28;20016;-75
2022/06/24 05:43:35;;;;;;;9.85;3.95;;;;;;;;;;5077189;28;20013;-76
2022/06/24 05:46:01;;;;;;;8.90;4.10;;;;;;;;;;5078055;28;20024;-74
2022/06/24 05:48:28;;;;;;;10.05;4.30;;;;;;;;;;5074374;28;20085;-72
2022/06/24 05:50:54;;;;;;;6.20;3.22;;;;;;;;;;5080533;28;20032;-74
2022/06/24 05:56:05;;;;;;;7.10;3.60;;;;;;;;;;5077510;28;20059;-77
2022/06/24 05:58:31;;;;;;;5.05;3.58;;;;;;;;;;5073604;28;20024;-75
2022/06/24 06:00:57;;;;;;;6.30;3.60;;;;;;;;;;5075809;28;20032;-74
2022/06/24 06:03:27;;;;;;;9.75;4.03;;;;;;;;;;5081747;28;20132;-78
2022/06/24 06:05:53;;;;;;;7.50;3.65;;;;;;;;;;5071472;28;20016;-74
2022/06/24 06:08:19;;;;;;;7.35;3.88;;;;;;;;;;5077518;28;20016;-71
2022/06/24 06:10:46;;;;;;;4.47;3.63;;;;;;;;;;5077216;28;20138;-72
2022/06/24 06:13:12;;;;;;;4.97;3.78;;;;;;;;;;5073078;28;20025;-74
2022/06/24 06:15:38;;;;;;;4.22;3.42;;;;;;;;;;5078244;28;20125;-74
2022/06/24 06:18:05;;;;;;;6.10;3.83;;;;;;;;;;5079203;28;20044;-74
2022/06/24 06:20:31;;;;;;;9.45;4.10;;;;;;;;;;5073427;28;20101;-72
2022/06/24 06:22:57;;;;;;;8.90;3.90;;;;;;;;;;5076152;28;20032;-73
2022/06/24 06:25:23;;;;;;;5.97;3.55;;;;;;;;;;5072983;28;20042;-72
2022/06/24 06:27:50;;;;;;;6.97;4.00;;;;;;;;;;5070971;28;20049;-72
2022/06/24 06:30:16;;;;;;;6.32;3.90;;;;;;;;;;5077793;28;20070;-74
2022/06/24 06:32:42;;;;;;;5.13;3.80;;;;;;;;;;5070136;28;20027;-74
2022/06/24 06:35:08;;;;;;;8.05;3.97;;;;;;;;;;5083063;28;20037;-71
2022/06/24 06:37:34;;;;;;;7.78;4.05;;;;;;;;;;5074761;28;20052;-70
2022/06/24 06:40:00;;;;;;;11.55;3.70;;;;;;;;;;5073665;28;20036;-72
2022/06/24 06:42:27;;;;;;;6.38;3.97;;;;;;;;;;5073900;28;20021;-71
2022/06/24 06:44:53;;;;;;;7.97;3.67;;;;;;;;;;5075756;28;20028;-71
2022/06/24 06:47:19;;;;;;;8.05;3.50;;;;;;;;;;5077940;28;20037;-72
2022/06/24 06:49:45;;;;;;;6.30;3.83;;;;;;;;;;5074155;28;20028;-74
2022/06/24 06:52:11;;;;;;;5.63;3.60;;;;;;;;;;5074203;28;20024;-72
2022/06/24 06:54:37;;;;;;;8.80;4.00;;;;;;;;;;5072898;28;20082;-72
2022/06/24 06:57:04;;;;;;;6.45;3.65;;;;;;;;;;5073406;28;20477;-76
2022/06/24 06:59:30;;;;;;;4.80;3.90;;;;;;;;;;5072123;28;20024;-73
2022/06/24 07:01:56;;;;;;;5.95;3.50;;;;;;;;;;5071445;28;20028;-72
2022/06/24 07:04:22;;;;;;;8.98;3.90;;;;;;;;;;5075021;28;20056;-73
2022/06/24 07:06:49;;;;;;;9.07;4.30;;;;;;;;;;5075733;28;20378;-73
2022/06/24 07:09:15;;;;;;;5.47;3.80;;;;;;;;;;5074102;28;20034;-74
2022/06/24 07:11:41;;;;;;;7.18;4.00;;;;;;;;;;5078620;28;20576;-72
2022/06/24 07:14:07;;;;;;;6.05;3.90;;;;;;;;;;5072782;28;20037;-73
2022/06/24 07:16:33;;;;;;;6.05;3.60;;;;;;;;;;5075248;28;20390;-72
2022/06/24 07:18:59;;;;;;;6.60;3.47;;;;;;;;;;5074294;28;20035;-72
2022/06/24 07:21:25;;;;;;;11.95;3.90;;;;;;;;;;5074209;28;20060;-71
2022/06/24 07:23:51;;;;;;;6.00;3.40;;;;;;;;;;5072955;28;20141;-71
2022/06/24 07:26:18;;;;;;;6.50;3.65;;;;;;;;;;5074695;28;20078;-71
2022/06/24 07:28:44;;;;;;;4.25;3.22;;;;;;;;;;5073456;28;20545;-73
2022/06/24 07:31:17;;;;;;;4.93;3.35;;;;;;;;;;5073246;28;20032;-73
2022/06/24 07:33:44;;;;;;;9.35;3.70;;;;;;;;;;5073009;28;20029;-72
2022/06/24 07:36:10;;;;;;;6.28;3.50;;;;;;;;;;5073671;28;20032;-71
2022/06/24 07:38:36;;;;;;;4.63;3.60;;;;;;;;;;5069535;28;20051;-73
2022/06/24 07:41:02;;;;;;;4.50;3.40;;;;;;;;;;5066919;28;20024;-73
2022/06/24 07:43:28;;;;;;;6.55;3.67;;;;;;;;;;5071530;28;20039;-73
2022/06/24 07:45:55;;;;;;;5.50;3.47;;;;;;;;;;5070230;28;20058;-77
2022/06/24 07:48:21;;;;;;;4.63;3.63;;;;;;;;;;5077706;28;20029;-73
2022/06/24 07:50:48;;;;;;;5.32;3.50;;;;;;;;;;5077453;28;20044;-74
2022/06/24 07:53:14;;;;;;;5.85;3.70;;;;;;;;;;5076901;28;20017;-73
2022/06/24 07:58:25;;;;;;;5.03;3.15;;;;;;;;;;5074644;28;20519;-76
2022/06/24 08:00:51;;;;;;;5.40;3.03;;;;;;;;;;5076542;28;20494;-72
2022/06/24 08:03:18;;;;;;;4.00;2.97;;;;;;;;;;5076226;28;20029;-73
2022/06/24 08:05:44;;;;;;;5.25;2.90;;;;;;;;;;5071729;28;20029;-72
2022/06/24 08:08:10;;;;;;;9.50;3.10;;;;;;;;;;5072740;28;20043;-72
2022/06/24 08:10:37;;;;;;;4.43;2.90;;;;;;;;;;5073799;28;20070;-71
2022/06/24 08:13:03;;;;;;;7.88;3.20;;;;;;;;;;5071810;28;20381;-74
2022/06/24 08:15:29;;;;;;;3.83;2.90;;;;;;;;;;5076262;28;20036;-74
2022/06/24 08:17:55;;;;;;;5.20;3.05;;;;;;;;;;5075267;28;20066;-74
2022/06/24 08:20:21;;;;;;;7.32;3.40;;;;;;;;;;5071861;28;20044;-74
2022/06/24 08:22:47;;;;;;;3.97;2.83;;;;;;;;;;5073089;28;20032;-74
2022/06/24 08:25:13;;;;;;;6.05;3.00;;;;;;;;;;5071129;28;21304;-73
2022/06/24 08:27:39;;;;;;;5.75;3.30;;;;;;;;;;5072458;28;20078;-73
2022/06/24 08:30:06;;;;;;;6.00;3.33;;;;;;;;;;5072293;28;20435;-73
2022/06/24 08:32:32;;;;;;;6.47;3.10;;;;;;;;;;5071894;28;20028;-73
2022/06/24 08:34:58;;;;;;;6.85;3.20;;;;;;;;;;5072541;28;20099;-74
2022/06/24 08:37:24;;;;;;;7.30;3.15;;;;;;;;;;5072542;28;20033;-74
2022/06/24 08:39:50;;;;;;;4.32;2.67;;;;;;;;;;5073123;28;20025;-73
2022/06/24 08:42:16;;;;;;;5.97;2.85;;;;;;;;;;5079033;28;20123;-74
2022/06/24 08:44:42;;;;;;;7.90;2.80;;;;;;;;;;5072471;28;20017;-74
2022/06/24 08:47:14;;;;;;;14.73;3.50;;;;;;;;;;5072204;28;20036;-74
2022/06/24 08:49:40;;;;;;;6.22;2.65;;;;;;;;;;5073400;28;20509;-73
2022/06/24 08:52:10;;;;;;;4.82;2.40;;;;;;;;;;5072181;28;20060;-74
2022/06/24 08:54:37;;;;;;;5.38;2.88;;;;;;;;;;5072269;28;20036;-74
2022/06/24 08:57:03;;;;;;;15.10;4.60;;;;;;;;;;5078309;28;20029;-73
2022/06/24 08:59:29;;;;;;;3.90;3.10;;;;;;;;;;5070551;28;20024;-75
2022/06/24 09:01:55;;;;;;;7.57;3.08;;;;;;;;;;5069158;28;20541;-74
2022/06/24 09:04:23;;;;;;;4.72;2.90;;;;;;;;;;5072044;28;20058;-73
2022/06/24 09:06:49;;;;;;;7.63;3.15;;;;;;;;;;5078426;28;20386;-75
2022/06/24 09:09:23;;;;;;;6.75;3.45;;;;;;;;;;5076107;28;20024;-76
2022/06/24 09:11:53;;;;;;;5.45;2.80;;;;;;;;;;5070139;28;20152;-83
2022/06/24 09:14:19;;;;;;;5.22;2.80;;;;;;;;;;5061189;28;20036;-82
2022/06/24 09:16:45;;;;;;;3.28;2.45;;;;;;;;;;5078487;28;20071;-89
2022/06/24 09:19:14;;;;;;;4.07;2.80;;;;;;;;;;5090260;28;20024;-84
2022/06/24 09:21:41;;;;;;;4.68;2.90;;;;;;;;;;5089745;28;20055;-81
2022/06/24 09:24:08;;;;;;;5.63;2.70;;;;;;;;;;5076226;28;20029;-82
2022/06/24 09:26:38;;;;;;;6.25;2.80;;;;;;;;;;5091430;28;20521;-81
2022/06/24 09:29:05;;;;;;;5.35;2.60;;;;;;;;;;5080303;28;20020;-81
2022/06/24 09:31:32;;;;;;;3.38;2.60;;;;;;;;;;5071847;28;20029;-81
2022/06/24 09:34:06;;;;;;;6.05;3.42;;;;;;;;;;5074480;28;20052;-79
2022/06/24 09:36:33;;;;;;;3.83;2.90;;;;;;;;;;5076170;28;20032;-82
2022/06/24 09:39:02;;;;;;;4.18;2.47;;;;;;;;;;5075826;28;20108;-81
2022/06/24 09:41:28;;;;;;;5.45;2.75;;;;;;;;;;5079384;28;20052;-83
2022/06/24 10:52:36;;;;;;;3.97;2.78;;;;;;;;;;5163199;27;20402;-74
2022/06/24 10:55:32;;;;;;;5.60;2.50;;;;;;;;;;5143011;27;20116;-82
2022/06/24 10:58:05;;;;;;;4.55;2.80;;;;;;;;;;5081139;28;20032;-80
2022/06/24 11:00:37;;;;;;;6.30;2.90;;;;;;;;;;5106447;28;20036;-80
2022/06/24 11:03:03;;;;;;;3.63;2.40;;;;;;;;;;5101982;28;20039;-78
2022/06/24 11:05:32;;;;;;;7.25;3.00;;;;;;;;;;5107927;28;20042;-75
2022/06/24 11:07:59;;;;;;;4.57;2.55;;;;;;;;;;5104525;28;20485;-80
2022/06/24 11:10:31;;;;;;;4.18;2.80;;;;;;;;;;5088085;28;20027;-76
2022/06/24 11:12:59;;;;;;;7.60;3.38;;;;;;;;;;5104482;28;20034;-75
2022/06/24 11:15:45;;;;;;;8.80;2.80;;;;;;;;;;5099507;28;20491;-74
2022/06/24 11:18:16;;;;;;;4.40;2.60;;;;;;;;;;5098423;28;20032;-74
2022/06/24 11:20:43;;;;;;;7.93;3.03;;;;;;;;;;5096980;28;20040;-74
2022/06/24 11:23:11;;;;;;;6.20;2.92;;;;;;;;;;5097990;28;20036;-75
2022/06/24 11:25:39;;;;;;;3.85;2.65;;;;;;;;;;5079174;28;20115;-75
2022/06/24 11:28:05;;;;;;;5.55;2.80;;;;;;;;;;5099359;28;20043;-75
2022/06/24 11:30:34;;;;;;;5.43;2.78;;;;;;;;;;5098464;28;20046;-74
2022/06/24 11:33:03;;;;;;;4.75;2.88;;;;;;;;;;5096810;28;20035;-75
2022/06/24 11:35:30;;;;;;;5.13;2.70;;;;;;;;;;5143310;27;20026;-75
2022/06/24 11:37:56;;;;;;;7.80;2.65;;;;;;;;;;5144432;27;20075;-75
2022/06/24 11:40:22;;;;;;;7.20;3.03;;;;;;;;;;5150792;27;20499;-74
2022/06/24 11:42:48;;;;;;;5.43;2.80;;;;;;;;;;5141287;27;20361;-71
2022/06/24 11:45:14;;;;;;;4.43;2.90;;;;;;;;;;5135766;27;20392;-72
2022/06/24 11:47:43;;;;;;;2.92;2.60;;;;;;;;;;5133958;27;20043;-73
2022/06/24 11:50:18;;;;;;;5.95;3.10;;;;;;;;;;5135169;27;20813;-72
2022/06/24 11:52:48;;;;;;;4.35;2.90;;;;;;;;;;5126321;27;20046;-72
2022/06/24 11:55:24;;;;;;;6.20;2.65;;;;;;;;;;5121274;27;20380;-72
2022/06/24 11:57:54;;;;;;;5.43;2.90;;;;;;;;;;5124877;27;20431;-73
2022/06/24 12:11:19;;;;;;;4.25;2.90;;;;;;;;;;5097829;27;20490;-76
2022/06/24 12:13:56;;;;;;;4.28;2.90;;;;;;;;;;5081975;28;20382;-75
2022/06/24 12:16:22;;;;;;;4.47;2.90;;;;;;;;;;5080462;28;20053;-74
2022/06/24 12:18:48;;;;;;;4.97;2.80;;;;;;;;;;5087070;28;20547;-75
2022/06/24 12:21:15;;;;;;;3.47;2.78;;;;;;;;;;5081541;28;20036;-75
2022/06/24 12:23:44;;;;;;;4.88;2.85;;;;;;;;;;5086760;28;20020;-74
2022/06/24 12:26:16;;;;;;;7.25;3.80;;;;;;;;;;5086530;28;20032;-76
2022/06/24 12:28:43;;;;;;;4.80;2.90;;;;;;;;;;5088351;28;20025;-74
2022/06/24 12:31:10;;;;;;;4.05;2.78;;;;;;;;;;5084070;28;20043;-74
2022/06/24 12:33:38;;;;;;;7.38;2.92;;;;;;;;;;5081006;28;20032;-75
2022/06/24 12:36:10;;;;;;;5.32;3.00;;;;;;;;;;5088041;28;20025;-76
2022/06/24 12:38:44;;;;;;;3.60;2.60;;;;;;;;;;5087144;28;20024;-75
2022/06/24 12:41:11;;;;;;;3.95;2.63;;;;;;;;;;5083596;28;20029;-76
2022/06/24 12:43:50;;;;;;;3.70;2.40;;;;;;;;;;5087074;28;20061;-71
2022/06/24 12:46:19;;;;;;;4.40;2.80;;;;;;;;;;5087328;28;20024;-75
2022/06/24 12:51:30;;;;;;;9.43;2.92;;;;;;;;;;5083447;28;20047;-71
2022/06/24 12:53:58;;;;;;;4.78;2.88;;;;;;;;;;5086617;28;20028;-77
2022/06/24 12:56:24;;;;;;;4.78;2.50;;;;;;;;;;5086844;28;20108;-72
2022/06/24 12:58:54;;;;;;;4.75;2.92;;;;;;;;;;5088133;28;20044;-74
2022/06/24 13:01:20;;;;;;;4.65;3.00;;;;;;;;;;5084924;28;20556;-72
2022/06/24 13:03:51;;;;;;;6.13;3.10;;;;;;;;;;5079631;28;20021;-72
2022/06/24 13:06:18;;;;;;;4.28;2.97;;;;;;;;;;5076644;28;20160;-74
2022/06/24 13:08:44;;;;;;;4.70;2.80;;;;;;;;;;5075607;28;20443;-74
2022/06/24 13:11:10;;;;;;;8.00;3.22;;;;;;;;;;5070322;28;20044;-73
2022/06/24 13:13:39;;;;;;;3.92;2.70;;;;;;;;;;5067720;28;20024;-73
2022/06/24 13:16:05;;;;;;;4.97;2.95;;;;;;;;;;5066151;28;20504;-71
2022/06/24 13:18:37;;;;;;;3.63;2.42;;;;;;;;;;5064797;28;20478;-72
2022/06/24 13:21:06;;;;;;;4.60;2.70;;;;;;;;;;5062571;28;20386;-75
2022/06/24 13:23:34;;;;;;;4.90;2.50;;;;;;;;;;5064135;28;20083;-76
2022/06/24 13:26:02;;;;;;;3.83;2.67;;;;;;;;;;5069295;28;20074;-74
2022/06/24 13:28:45;;;;;;;4.30;2.70;;;;;;;;;;5061707;28;20455;-69
2022/06/24 13:31:18;;;;;;;9.53;2.83;;;;;;;;;;5066355;28;20033;-69
2022/06/24 13:33:50;;;;;;;4.97;2.58;;;;;;;;;;5062282;28;20569;-71
2022/06/24 13:36:17;;;;;;;5.40;3.20;;;;;;;;;;5068060;28;20028;-71
2022/06/24 13:39:08;;;;;;;4.80;2.80;;;;;;;;;;5060801;28;20035;-70
2022/06/24 13:41:36;;;;;;;3.97;2.95;;;;;;;;;;5066329;28;20086;-70
2022/06/24 13:44:05;;;;;;;4.72;2.83;;;;;;;;;;5062419;28;20028;-70
2022/06/24 13:46:31;;;;;;;6.22;2.95;;;;;;;;;;5067028;28;20044;-72
2022/06/24 13:48:58;;;;;;;4.97;2.95;;;;;;;;;;5060871;28;20027;-70
2022/06/24 13:51:25;;;;;;;6.05;2.85;;;;;;;;;;5068254;28;20031;-72
2022/06/24 13:53:52;;;;;;;6.30;3.15;;;;;;;;;;5061785;28;20468;-73
2022/06/24 13:56:18;;;;;;;4.70;2.90;;;;;;;;;;5063844;28;20020;-72
2022/06/24 13:58:45;;;;;;;5.75;2.97;;;;;;;;;;5063712;28;20029;-71
2022/06/24 14:01:18;;;;;;;6.95;3.58;;;;;;;;;;5067706;28;20108;-70
2022/06/24 14:03:44;;;;;;;8.15;3.55;;;;;;;;;;5065981;28;20021;-74
2022/06/24 14:06:10;;;;;;;4.50;2.90;;;;;;;;;;5061123;28;20755;-73
2022/06/24 14:08:39;;;;;;;5.75;3.08;;;;;;;;;;5081037;28;20436;-72
2022/06/24 14:11:05;;;;;;;4.78;3.00;;;;;;;;;;5063604;28;20041;-71
2022/06/24 14:13:32;;;;;;;4.38;2.83;;;;;;;;;;5057347;28;20025;-69
2022/06/24 14:15:58;;;;;;;3.67;2.72;;;;;;;;;;5065793;28;20390;-71
2022/06/24 14:18:24;;;;;;;6.75;3.50;;;;;;;;;;5072543;28;20114;-70
2022/06/24 14:20:50;;;;;;;7.20;3.17;;;;;;;;;;5063893;28;20072;-70
2022/06/24 14:26:01;;;;;;;4.75;2.80;;;;;;;;;;5066775;28;20066;-71
2022/06/24 14:28:27;;;;;;;5.97;2.92;;;;;;;;;;5067870;28;20428;-72
2022/06/24 14:30:53;;;;;;;4.07;2.88;;;;;;;;;;5066938;28;20048;-70
2022/06/24 14:33:19;;;;;;;7.45;3.38;;;;;;;;;;5057678;28;20052;-71
2022/06/24 14:35:45;;;;;;;8.57;3.20;;;;;;;;;;5075646;28;20496;-72
2022/06/24 14:40:56;;;;;;;6.60;3.22;;;;;;;;;;5073082;28;20124;-71
2022/06/24 14:43:22;;;;;;;10.23;3.42;;;;;;;;;;5073727;28;20020;-69
2022/06/24 14:45:51;;;;;;;4.07;2.95;;;;;;;;;;5066487;28;20466;-69
2022/06/24 14:48:17;;;;;;;7.20;3.40;;;;;;;;;;5072465;28;20788;-70
2022/06/24 14:50:43;;;;;;;4.30;3.00;;;;;;;;;;5081847;28;20397;-72
2022/06/24 14:53:09;;;;;;;8.07;3.28;;;;;;;;;;5072609;28;20070;-70
2022/06/24 14:55:35;;;;;;;3.80;2.75;;;;;;;;;;5072757;28;20020;-71
2022/06/24 14:58:01;;;;;;;5.93;3.00;;;;;;;;;;5077831;28;20461;-72
2022/06/24 15:00:28;;;;;;;4.15;2.75;;;;;;;;;;5071215;28;20478;-71
2022/06/24 15:02:54;;;;;;;4.70;3.05;;;;;;;;;;5072519;28;20033;-72
2022/06/24 15:05:20;;;;;;;5.45;3.28;;;;;;;;;;5078227;28;20024;-73
2022/06/24 15:07:47;;;;;;;3.55;2.90;;;;;;;;;;5067046;28;20025;-69
2022/06/24 15:10:13;;;;;;;4.88;2.90;;;;;;;;;;5069096;28;20049;-72
2022/06/24 15:12:39;;;;;;;8.20;3.10;;;;;;;;;;5065876;28;20032;-73
2022/06/24 15:15:06;;;;;;;6.05;2.90;;;;;;;;;;5068522;28;20095;-71
2022/06/24 15:17:32;;;;;;;4.50;3.33;;;;;;;;;;5072205;28;20394;-71
2022/06/24 15:19:58;;;;;;;11.27;3.50;;;;;;;;;;5067072;28;20044;-71
2022/06/24 15:22:25;;;;;;;5.38;3.08;;;;;;;;;;5071203;28;20016;-69
2022/06/24 15:24:53;;;;;;;5.22;2.85;;;;;;;;;;5066208;28;20024;-72
2022/06/24 15:27:20;;;;;;;4.55;2.92;;;;;;;;;;5073126;28;20062;-70
2022/06/24 15:29:46;;;;;;;6.22;2.90;;;;;;;;;;5071276;28;20033;-73
2022/06/24 15:32:12;;;;;;;5.65;2.72;;;;;;;;;;5073242;28;20382;-69
2022/06/24 15:34:38;;;;;;;4.68;2.70;;;;;;;;;;5069763;28;20032;-72
2022/06/24 15:37:09;;;;;;;7.88;3.22;;;;;;;;;;5067533;28;20059;-72
2022/06/24 15:39:38;;;;;;;3.78;3.03;;;;;;;;;;5069229;28;20112;-69
2022/06/24 15:42:04;;;;;;;4.43;3.03;;;;;;;;;;5070363;28;20036;-73
2022/06/24 15:44:30;;;;;;;4.65;2.70;;;;;;;;;;5063759;28;20355;-73
2022/06/24 15:46:56;;;;;;;7.63;3.03;;;;;;;;;;5068330;28;20043;-70
2022/06/24 15:49:22;;;;;;;3.22;2.72;;;;;;;;;;5072533;28;20064;-72
2022/06/24 15:51:49;;;;;;;5.63;3.50;;;;;;;;;;5073654;28;20040;-71
2022/06/24 15:54:16;;;;;;;8.93;5.43;;;;;;;;;;5068897;28;20529;-72
2022/06/24 15:56:42;;;;;;;8.55;5.40;;;;;;;;;;5070451;28;20115;-71
2022/06/24 15:59:08;;;;;;;5.32;3.60;;;;;;;;;;5081440;28;20533;-69
2022/06/24 16:01:34;;;;;;;8.95;3.50;;;;;;;;;;5076142;28;20028;-72
2022/06/24 16:04:00;;;;;;;3.88;2.97;;;;;;;;;;5071038;28;20493;-72
2022/06/24 16:06:26;;;;;;;4.78;3.00;;;;;;;;;;5073184;28;20028;-69
2022/06/24 16:08:52;;;;;;;3.05;2.72;;;;;;;;;;5067735;28;20052;-72
2022/06/24 16:11:18;;;;;;;6.15;2.95;;;;;;;;;;5067854;28;20016;-70
2022/06/24 16:13:47;;;;;;;3.30;2.70;;;;;;;;;;5075822;28;20501;-72
2022/06/24 16:16:13;;;;;;;6.57;2.70;;;;;;;;;;5064244;28;20490;-70
2022/06/24 16:18:41;;;;;;;5.68;2.90;;;;;;;;;;5075180;28;20020;-69
2022/06/24 16:21:08;;;;;;;36.30;4.60;;;;;;;;;;5073430;28;20033;-70
2022/06/24 16:23:35;;;;;;;6.85;2.58;;;;;;;;;;5068467;28;20032;-71